createdAt,value
2018-06-21T00:01:06.547Z,88.80
2018-06-21T00:03:34.735Z,89.00
2018-06-21T00:06:02.951Z,88.70
2018-06-21T00:08:31.204Z,88.50
2018-06-21T00:10:59.399Z,88.20
2018-06-21T00:13:27.600Z,88.20
2018-06-21T00:15:55.807Z,88.50
2018-06-21T00:18:24.001Z,89.00
2018-06-21T00:20:52.207Z,88.80
2018-06-21T00:23:20.418Z,88.90
2018-06-21T00:28:16.943Z,89.20
2018-06-21T00:30:45.160Z,89.60
2018-06-21T00:33:13.348Z,89.00
2018-06-21T00:35:41.540Z,89.60
2018-06-21T00:38:09.776Z,90.00
2018-06-21T00:40:37.985Z,90.40
2018-06-21T00:43:06.204Z,90.10
2018-06-21T00:45:34.399Z,89.70
2018-06-21T00:48:02.615Z,89.80
2018-06-21T00:50:30.807Z,90.00
2018-06-21T00:52:59.037Z,90.20
2018-06-21T00:55:38.545Z,90.00
2018-06-21T00:58:06.740Z,90.10
2018-06-21T01:00:34.928Z,90.20
2018-06-21T01:03:03.138Z,90.10
2018-06-21T01:05:31.337Z,90.60
2018-06-21T01:07:59.566Z,90.90
2018-06-21T01:10:27.807Z,91.10
2018-06-21T01:12:56.023Z,91.00
2018-06-21T01:15:24.239Z,91.10
2018-06-21T01:17:52.519Z,90.90
2018-06-21T01:20:20.729Z,91.00
2018-06-21T01:22:49.011Z,91.10
2018-06-21T01:25:17.287Z,91.40
2018-06-21T01:27:45.505Z,91.30
2018-06-21T01:30:13.730Z,91.00
2018-06-21T01:32:41.943Z,91.50
2018-06-21T01:35:10.179Z,91.50
2018-06-21T01:37:38.410Z,91.70
2018-06-21T01:40:06.613Z,92.10
2018-06-21T01:42:34.846Z,92.10
2018-06-21T01:45:03.107Z,92.10
2018-06-21T01:47:31.372Z,92.00
2018-06-21T01:49:59.595Z,92.40
2018-06-21T01:52:27.824Z,92.50
2018-06-21T01:54:56.082Z,92.30
2018-06-21T01:59:52.291Z,92.20
2018-06-21T02:02:20.508Z,92.60
2018-06-21T02:04:48.740Z,92.40
2018-06-21T02:07:16.954Z,92.10
2018-06-21T02:09:45.185Z,92.50
2018-06-21T02:12:13.426Z,92.50
2018-06-21T02:14:41.647Z,92.70
2018-06-21T02:17:09.867Z,93.20
2018-06-21T02:19:38.073Z,93.40
2018-06-21T02:22:06.266Z,93.20
2018-06-21T02:24:34.489Z,93.20
2018-06-21T02:27:02.690Z,93.40
2018-06-21T02:29:30.887Z,93.20
2018-06-21T02:31:59.161Z,93.30
2018-06-21T02:34:27.370Z,93.00
2018-06-21T02:36:55.560Z,93.30
2018-06-21T02:39:23.780Z,93.80
2018-06-21T02:41:51.982Z,93.60
2018-06-21T02:44:20.187Z,93.20
2018-06-21T02:46:48.387Z,93.10
2018-06-21T02:49:16.580Z,93.30
2018-06-21T02:51:44.795Z,93.30
2018-06-21T02:54:13.019Z,93.80
2018-06-21T02:56:41.235Z,93.90
2018-06-21T02:59:09.446Z,93.80
2018-06-21T03:01:37.643Z,94.10
2018-06-21T03:04:05.922Z,94.00
2018-06-21T03:06:34.067Z,93.80
2018-06-21T03:09:02.279Z,94.10
2018-06-21T03:11:30.475Z,94.40
2018-06-21T03:13:58.701Z,94.10
2018-06-21T03:16:26.930Z,94.30
2018-06-21T03:18:55.151Z,94.40
2018-06-21T03:21:23.380Z,94.70
2018-06-21T03:23:51.602Z,94.30
2018-06-21T03:26:19.829Z,94.20
2018-06-21T03:28:48.056Z,93.60
2018-06-21T03:31:16.281Z,93.40
2018-06-21T03:33:44.503Z,93.00
2018-06-21T03:36:12.723Z,92.90
2018-06-21T03:38:40.942Z,92.90
2018-06-21T03:41:09.208Z,92.90
2018-06-21T03:43:37.463Z,93.00
2018-06-21T03:46:05.778Z,93.10
2018-06-21T03:48:34.535Z,92.90
2018-06-21T03:51:02.772Z,93.40
2018-06-21T03:53:30.972Z,93.50
2018-06-21T03:55:59.403Z,93.90
2018-06-21T03:58:27.854Z,94.30
2018-06-21T04:00:56.133Z,94.30
2018-06-21T04:03:24.312Z,94.50
2018-06-21T04:05:52.563Z,94.10
2018-06-21T04:08:20.844Z,94.30
2018-06-21T04:10:49.004Z,94.10
2018-06-21T04:13:17.235Z,94.30
2018-06-21T04:15:45.491Z,94.10
2018-06-21T04:18:13.711Z,94.40
2018-06-21T04:20:41.946Z,94.40
2018-06-21T04:23:10.160Z,94.60
2018-06-21T04:25:38.383Z,94.30
2018-06-21T04:28:06.616Z,94.60
2018-06-21T04:30:34.839Z,94.80
2018-06-21T04:33:03.057Z,94.80
2018-06-21T04:35:31.277Z,94.40
2018-06-21T04:37:59.504Z,94.60
2018-06-21T04:40:27.725Z,95.00
2018-06-21T04:42:55.946Z,94.80
2018-06-21T04:45:24.179Z,95.00
2018-06-21T04:47:52.407Z,94.60
2018-06-21T04:50:23.079Z,94.80
2018-06-21T04:52:51.339Z,94.30
2018-06-21T04:55:19.888Z,94.50
2018-06-21T04:57:48.119Z,94.10
2018-06-21T05:00:16.348Z,93.70
2018-06-21T05:02:44.623Z,93.70
2018-06-21T05:05:12.855Z,93.40
2018-06-21T05:07:41.442Z,93.40
2018-06-21T05:12:39.520Z,93.10
2018-06-21T05:15:07.822Z,93.00
2018-06-21T05:17:36.053Z,93.10
2018-06-21T05:20:20.424Z,93.20
2018-06-21T05:22:48.618Z,92.70
2018-06-21T05:25:16.816Z,93.10
2018-06-21T05:27:45.779Z,92.90
2018-06-21T05:30:14.004Z,92.70
2018-06-21T05:35:19.769Z,92.00
2018-06-21T05:37:48.568Z,91.90
2018-06-21T05:40:32.778Z,92.40
2018-06-21T05:43:01.980Z,92.20
2018-06-21T05:45:30.187Z,92.10
2018-06-21T05:48:00.050Z,92.00
2018-06-21T05:50:28.942Z,92.40
2018-06-21T05:52:57.936Z,92.80
2018-06-21T05:55:26.210Z,92.40
2018-06-21T05:57:54.412Z,92.00
2018-06-21T06:00:22.619Z,91.20
2018-06-21T06:02:51.038Z,91.40
2018-06-21T06:07:47.215Z,91.10
2018-06-21T06:10:15.502Z,90.90
2018-06-21T06:12:43.877Z,90.80
2018-06-21T06:15:12.333Z,90.30
2018-06-21T06:17:40.694Z,90.20
2018-06-21T06:20:09.032Z,90.30
2018-06-21T06:22:37.490Z,90.00
2018-06-21T06:25:06.027Z,86.50
2018-06-21T06:27:34.504Z,83.60
2018-06-21T06:30:02.981Z,81.10
2018-06-21T06:32:31.452Z,79.60
2018-06-21T06:35:00.012Z,76.80
2018-06-21T06:37:28.438Z,74.70
2018-06-21T06:39:56.935Z,72.40
2018-06-21T06:44:53.537Z,70.50
2018-06-21T06:47:22.164Z,69.30
2018-06-21T06:52:18.793Z,66.70
2018-06-21T06:54:47.324Z,64.60
2018-06-21T06:57:15.832Z,64.10
2018-06-21T06:59:44.299Z,63.80
2018-06-21T07:02:12.811Z,62.20
2018-06-21T07:04:41.387Z,63.70
2018-06-21T07:07:09.912Z,61.40
2018-06-21T07:09:38.474Z,61.60
2018-06-21T07:12:07.023Z,60.10
2018-06-21T07:14:35.532Z,62.70
2018-06-21T07:17:03.995Z,63.50
2018-06-21T07:19:32.648Z,61.70
2018-06-21T07:22:01.120Z,59.50
2018-06-21T07:24:29.648Z,59.90
2018-06-21T07:26:58.155Z,61.60
2018-06-21T07:29:26.656Z,61.70
2018-06-21T07:34:23.435Z,62.20
2018-06-21T07:36:51.940Z,63.00
2018-06-21T07:39:20.572Z,63.20
2018-06-21T07:41:49.169Z,61.80
2018-06-21T07:44:17.685Z,61.30
2018-06-21T07:46:46.335Z,62.00
2018-06-21T07:49:14.876Z,62.20
2018-06-21T07:51:43.582Z,62.00
2018-06-21T07:54:12.197Z,59.90
2018-06-21T07:59:09.161Z,59.00
2018-06-21T08:04:05.855Z,57.40
2018-06-21T08:06:34.376Z,57.00
2018-06-21T08:09:02.958Z,54.30
2018-06-21T08:11:31.523Z,53.90
2018-06-21T08:14:00.063Z,52.80
2018-06-21T08:16:28.641Z,53.10
2018-06-21T08:18:57.195Z,53.10
2018-06-21T08:21:25.708Z,50.80
2018-06-21T08:23:54.303Z,50.80
2018-06-21T08:26:22.844Z,49.00
2018-06-21T08:28:51.477Z,47.90
2018-06-21T08:31:20.023Z,48.80
2018-06-21T08:33:48.635Z,47.80
2018-06-21T08:36:17.214Z,46.80
2018-06-21T08:38:45.936Z,46.00
2018-06-21T08:41:14.493Z,45.30
2018-06-21T08:43:43.087Z,45.60
2018-06-21T08:46:11.727Z,46.40
2018-06-21T08:48:40.411Z,48.20
2018-06-21T08:51:08.991Z,49.10
2018-06-21T08:53:37.496Z,50.30
2018-06-21T08:56:06.128Z,49.30
2018-06-21T08:58:34.797Z,52.10
2018-06-21T09:01:03.480Z,51.30
2018-06-21T09:03:32.104Z,51.10
2018-06-21T09:06:00.703Z,49.10
2018-06-21T09:08:29.289Z,49.20
2018-06-21T09:10:57.940Z,47.40
2018-06-21T09:13:33.132Z,46.60
2018-06-21T09:16:02.209Z,47.70
2018-06-21T09:18:30.769Z,48.10
2018-06-21T09:20:59.384Z,49.30
2018-06-21T09:23:28.014Z,50.40
2018-06-21T09:25:56.524Z,49.80
2018-06-21T09:28:25.042Z,49.40
2018-06-21T09:30:53.567Z,48.90
2018-06-21T09:33:22.250Z,48.70
2018-06-21T09:35:50.736Z,47.70
2018-06-21T09:38:24.522Z,47.70
2018-06-21T09:40:58.415Z,50.40
2018-06-21T09:43:32.124Z,50.80
2018-06-21T09:47:04.793Z,50.80
2018-06-21T09:49:34.341Z,49.90
2018-06-21T09:52:06.648Z,48.00
2018-06-21T09:54:35.216Z,49.40
2018-06-21T09:57:03.917Z,49.10
2018-06-21T09:59:32.530Z,49.80
2018-06-21T10:02:01.059Z,48.50
2018-06-21T10:04:29.553Z,47.10
2018-06-21T10:06:58.067Z,47.00
2018-06-21T10:09:26.585Z,48.00
2018-06-21T10:11:55.172Z,48.50
2018-06-21T10:14:23.794Z,49.80
2018-06-21T10:16:52.501Z,50.70
2018-06-21T10:19:21.093Z,50.80
2018-06-21T10:21:49.700Z,50.00
2018-06-21T10:24:18.247Z,51.40
2018-06-21T10:26:46.794Z,52.50
2018-06-21T10:29:15.353Z,51.70
2018-06-21T10:31:43.926Z,54.40
2018-06-21T10:34:12.533Z,52.40
2018-06-21T10:36:41.129Z,51.90
2018-06-21T10:39:11.257Z,50.60
2018-06-21T10:41:39.894Z,51.40
2018-06-21T10:44:08.443Z,50.90
2018-06-21T10:46:36.964Z,47.20
2018-06-21T10:49:05.511Z,49.30
2018-06-21T10:51:34.077Z,49.40
2018-06-21T10:54:02.788Z,49.20
2018-06-21T10:56:31.816Z,46.30
2018-06-21T10:59:00.541Z,46.00
2018-06-21T11:01:29.526Z,44.70
2018-06-21T11:03:58.349Z,44.50
2018-06-21T11:06:27.092Z,44.60
2018-06-21T11:08:55.616Z,44.50
2018-06-21T11:11:24.169Z,43.70
2018-06-21T11:13:52.814Z,45.70
2018-06-21T11:16:21.476Z,43.20
2018-06-21T11:18:50.026Z,43.10
2018-06-21T11:21:18.530Z,43.10
2018-06-21T11:23:47.031Z,43.60
2018-06-21T11:28:43.652Z,43.50
2018-06-21T11:31:12.284Z,42.80
2018-06-21T11:33:40.927Z,43.20
2018-06-21T11:36:09.396Z,42.90
2018-06-21T11:38:37.926Z,43.80
2018-06-21T11:41:06.427Z,45.80
2018-06-21T11:43:34.921Z,44.70
2018-06-21T11:46:03.588Z,44.00
2018-06-21T11:48:31.851Z,43.50
2018-06-21T11:53:29.124Z,43.60
2018-06-21T11:55:57.941Z,43.50
2018-06-21T11:58:27.201Z,44.60
2018-06-21T12:00:55.603Z,44.50
2018-06-21T12:03:24.347Z,45.30
2018-06-21T12:05:53.420Z,44.90
2018-06-21T12:08:22.837Z,45.00
2018-06-21T12:10:51.050Z,44.30
2018-06-21T12:13:20.464Z,47.00
2018-06-21T12:15:48.872Z,48.30
2018-06-21T12:18:17.146Z,46.30
2018-06-21T12:20:45.438Z,47.30
2018-06-21T12:23:14.656Z,46.90
2018-06-21T12:25:42.935Z,46.10
2018-06-21T12:28:11.168Z,46.30
2018-06-21T12:30:39.419Z,45.90
2018-06-21T12:33:07.638Z,44.50
2018-06-21T12:35:40.680Z,46.10
2018-06-21T12:38:09.225Z,45.80
2018-06-21T12:40:37.415Z,44.90
2018-06-21T12:43:05.679Z,45.10
2018-06-21T12:45:33.897Z,46.30
2018-06-21T12:48:02.120Z,46.20
2018-06-21T12:50:30.400Z,46.80
2018-06-21T12:52:58.632Z,45.60
2018-06-21T12:55:26.865Z,46.70
2018-06-21T12:57:55.121Z,46.10
2018-06-21T13:00:23.279Z,45.40
2018-06-21T13:02:51.712Z,46.50
2018-06-21T13:05:19.943Z,47.90
2018-06-21T13:07:48.158Z,48.60
2018-06-21T13:11:31.750Z,49.00
2018-06-21T13:14:11.443Z,50.30
2018-06-21T13:16:39.667Z,47.20
2018-06-21T13:19:07.932Z,48.30
2018-06-21T13:21:36.134Z,48.00
2018-06-21T13:24:04.348Z,47.80
2018-06-21T13:26:32.556Z,49.90
2018-06-21T13:29:00.747Z,49.10
2018-06-21T13:31:28.950Z,49.80
2018-06-21T13:33:57.236Z,48.20
2018-06-21T13:36:25.449Z,50.10
2018-06-21T13:38:53.638Z,50.40
2018-06-21T13:41:21.860Z,50.10
2018-06-21T13:43:50.105Z,49.60
2018-06-21T13:46:18.308Z,50.00
2018-06-21T13:48:46.532Z,49.70
2018-06-21T13:51:14.738Z,50.90
2018-06-21T13:53:42.935Z,49.60
2018-06-21T13:56:11.171Z,49.40
2018-06-21T13:58:39.379Z,49.30
2018-06-21T14:01:07.595Z,50.20
2018-06-21T14:03:35.781Z,49.40
2018-06-21T14:06:03.999Z,48.10
2018-06-21T14:08:32.320Z,49.40
2018-06-21T14:13:28.418Z,48.20
2018-06-21T14:15:56.689Z,48.20
2018-06-21T14:18:24.934Z,48.50
2018-06-21T14:20:53.197Z,47.40
2018-06-21T14:23:21.414Z,47.90
2018-06-21T14:25:49.783Z,48.40
2018-06-21T14:28:18.125Z,48.00
2018-06-21T14:30:46.350Z,49.90
2018-06-21T14:33:14.617Z,49.50
2018-06-21T14:35:42.923Z,49.70
2018-06-21T14:38:11.434Z,50.10
2018-06-21T14:40:39.639Z,49.90
2018-06-21T14:43:10.993Z,49.80
2018-06-21T14:45:39.468Z,50.20
2018-06-21T14:48:13.629Z,50.40
2018-06-21T14:50:42.081Z,50.50
2018-06-21T14:53:12.053Z,51.30
2018-06-21T14:55:40.509Z,51.00
2018-06-21T14:58:09.141Z,51.70
2018-06-21T15:00:37.829Z,51.30
2018-06-21T15:03:11.035Z,51.20
2018-06-21T15:05:39.485Z,50.50
2018-06-21T15:08:07.769Z,50.80
2018-06-21T15:10:35.968Z,51.30
2018-06-21T15:13:05.230Z,50.70
2018-06-21T15:15:33.463Z,51.00
2018-06-21T15:18:01.881Z,50.90
2018-06-21T15:22:58.466Z,51.40
2018-06-21T15:25:26.748Z,51.60
2018-06-21T15:27:55.009Z,51.00
2018-06-21T15:30:25.036Z,50.70
2018-06-21T15:32:54.158Z,50.90
2018-06-21T15:35:23.127Z,51.60
2018-06-21T15:37:53.304Z,51.00
2018-06-21T15:42:51.301Z,51.80
2018-06-21T15:47:47.895Z,52.60
2018-06-21T15:50:16.236Z,53.10
2018-06-21T15:52:44.431Z,53.50
2018-06-21T15:55:12.757Z,53.50
2018-06-21T15:57:41.049Z,53.70
2018-06-21T16:00:10.704Z,53.50
2018-06-21T16:02:39.064Z,54.00
2018-06-21T16:05:07.543Z,54.40
2018-06-21T16:07:35.808Z,55.00
2018-06-21T16:12:32.985Z,56.10
2018-06-21T16:15:01.620Z,55.90
2018-06-21T16:17:30.343Z,56.20
2018-06-21T16:19:58.884Z,56.50
2018-06-21T16:22:27.284Z,57.10
2018-06-21T16:24:55.693Z,57.00
2018-06-21T16:29:52.241Z,57.50
2018-06-21T16:34:49.052Z,57.10
2018-06-21T16:37:17.636Z,56.90
2018-06-21T16:39:46.079Z,57.50
2018-06-21T16:42:14.528Z,58.20
2018-06-21T16:44:42.987Z,58.40
2018-06-21T16:47:11.733Z,57.80
2018-06-21T16:49:40.407Z,58.70
2018-06-21T16:52:08.834Z,58.60
2018-06-21T16:55:03.949Z,59.10
2018-06-21T16:57:32.465Z,58.40
2018-06-21T17:00:01.061Z,59.20
2018-06-21T17:02:29.564Z,59.00
2018-06-21T17:04:58.053Z,59.30
2018-06-21T17:07:27.185Z,58.70
2018-06-21T17:09:55.754Z,58.70
2018-06-21T17:12:24.335Z,58.80
2018-06-21T17:14:53.061Z,58.90
2018-06-21T17:17:21.702Z,58.40
2018-06-21T17:19:50.224Z,59.10
2018-06-21T17:22:19.633Z,59.30
2018-06-21T17:29:44.560Z,58.70
2018-06-21T17:32:12.973Z,56.70
2018-06-21T17:34:41.607Z,56.60
2018-06-21T17:37:09.863Z,56.70
2018-06-21T17:39:38.883Z,56.90
2018-06-21T17:42:08.113Z,56.00
2018-06-21T17:44:36.362Z,57.00
2018-06-21T17:47:04.755Z,56.00
2018-06-21T17:49:33.314Z,55.70
2018-06-21T17:52:01.592Z,56.70
2018-06-21T17:54:29.830Z,55.10
2018-06-21T17:56:58.169Z,55.50
2018-06-21T17:59:26.412Z,54.20
2018-06-21T18:01:54.640Z,54.80
2018-06-21T18:04:22.887Z,55.90
2018-06-21T18:06:51.096Z,56.10
2018-06-21T18:09:19.638Z,56.10
2018-06-21T18:11:47.893Z,56.60
2018-06-21T18:14:16.129Z,55.60
2018-06-21T18:16:44.331Z,55.20
2018-06-21T18:19:12.571Z,56.60
2018-06-21T18:21:40.989Z,56.00
2018-06-21T18:24:09.196Z,57.70
2018-06-21T18:26:42.717Z,55.20
2018-06-21T18:29:10.978Z,55.40
2018-06-21T18:31:40.118Z,55.80
2018-06-21T18:34:08.436Z,55.20
2018-06-21T18:36:36.700Z,54.70
2018-06-21T18:39:07.297Z,54.70
2018-06-21T18:41:35.585Z,53.60
2018-06-21T18:44:05.635Z,54.10
2018-06-21T18:46:33.930Z,55.00
2018-06-21T18:49:02.214Z,54.90
2018-06-21T18:51:30.877Z,53.10
2018-06-21T18:53:59.615Z,54.40
2018-06-21T18:56:27.824Z,54.70
2018-06-21T18:58:56.053Z,54.40
2018-06-21T19:01:24.256Z,53.80
2018-06-21T19:03:52.479Z,53.70
2018-06-21T19:06:25.935Z,53.60
2018-06-21T19:08:59.431Z,53.80
2018-06-21T19:11:32.966Z,54.50
2018-06-21T19:14:01.152Z,54.30
2018-06-21T19:18:57.598Z,53.00
2018-06-21T19:21:26.104Z,52.80
2018-06-21T19:23:54.572Z,53.20
2018-06-21T19:26:23.045Z,52.80
2018-06-21T19:28:51.379Z,53.20
2018-06-21T19:31:19.570Z,53.40
2018-06-21T19:33:48.137Z,53.20
2018-06-21T19:36:16.537Z,53.00
2018-06-21T19:38:44.787Z,53.80
2018-06-21T19:41:13.026Z,53.50
2018-06-21T19:43:42.374Z,55.30
2018-06-21T19:46:10.839Z,54.80
2018-06-21T19:48:39.453Z,52.40
2018-06-21T19:51:07.845Z,51.30
2018-06-21T19:53:36.251Z,49.80
2018-06-21T19:56:04.736Z,51.00
2018-06-21T19:58:33.136Z,50.60
2018-06-21T20:01:01.693Z,49.50
2018-06-21T20:03:29.975Z,49.50
2018-06-21T20:05:58.367Z,49.00
2018-06-21T20:08:26.693Z,48.50
2018-06-21T20:11:00.336Z,49.00
2018-06-21T20:13:33.518Z,48.50
2018-06-21T20:16:01.739Z,49.00
2018-06-21T20:18:30.155Z,47.20
2018-06-21T20:20:58.835Z,45.60
2018-06-21T20:23:27.122Z,45.10
2018-06-21T20:25:55.375Z,45.40
2018-06-21T20:28:23.754Z,45.40
2018-06-21T20:30:51.945Z,46.40
2018-06-21T20:33:20.165Z,46.40
2018-06-21T20:35:48.564Z,45.50
2018-06-21T20:38:17.290Z,45.80
2018-06-21T20:40:45.781Z,46.20
2018-06-21T20:43:14.758Z,44.30
2018-06-21T20:45:43.026Z,45.40
2018-06-21T20:48:11.285Z,44.90
2018-06-21T20:50:39.836Z,45.20
2018-06-21T20:53:08.104Z,44.60
2018-06-21T20:55:36.358Z,45.00
2018-06-21T20:58:04.846Z,46.50
2018-06-21T21:00:33.076Z,45.20
2018-06-21T21:03:01.293Z,44.80
2018-06-21T21:05:29.818Z,45.70
2018-06-21T21:07:58.099Z,45.00
2018-06-21T21:10:26.455Z,45.40
2018-06-21T21:12:54.755Z,45.30
2018-06-21T21:15:23.026Z,45.90
2018-06-21T21:17:51.439Z,45.10
2018-06-21T21:20:19.753Z,44.40
2018-06-21T21:22:48.086Z,45.10
2018-06-21T21:25:16.448Z,45.20
2018-06-21T21:27:44.720Z,45.60
2018-06-21T21:30:13.160Z,46.30
2018-06-21T21:32:41.452Z,45.60
2018-06-21T21:35:09.890Z,46.50
2018-06-21T21:37:38.265Z,46.00
2018-06-21T21:40:07.341Z,46.00
2018-06-21T21:42:36.937Z,46.10
2018-06-21T21:45:05.614Z,47.40
2018-06-21T21:47:33.940Z,46.50
2018-06-21T21:50:08.788Z,47.10
2018-06-21T21:52:37.203Z,47.80
2018-06-21T21:55:05.528Z,47.00
2018-06-21T21:57:33.847Z,47.60
2018-06-21T22:00:02.171Z,48.10
2018-06-21T22:02:30.485Z,49.00
2018-06-21T22:04:58.926Z,47.90
2018-06-21T22:07:27.280Z,46.70
2018-06-21T22:09:55.571Z,47.80
2018-06-21T22:12:23.934Z,46.80
2018-06-21T22:14:52.276Z,47.70
2018-06-21T22:17:20.593Z,47.10
2018-06-21T22:19:49.201Z,48.30
2018-06-21T22:22:17.670Z,48.30
2018-06-21T22:24:46.031Z,48.20
2018-06-21T22:27:14.317Z,48.10
2018-06-21T22:29:42.698Z,48.10
2018-06-21T22:32:11.011Z,49.00
2018-06-21T22:34:39.329Z,49.40
2018-06-21T22:37:07.612Z,48.70
2018-06-21T22:39:35.932Z,50.00
2018-06-21T22:42:04.697Z,49.60
2018-06-21T22:44:37.986Z,49.80
2018-06-21T22:47:12.499Z,50.10
2018-06-21T22:49:42.028Z,49.80
2018-06-21T22:52:19.122Z,50.00
2018-06-21T22:54:57.414Z,49.80
2018-06-21T22:57:45.392Z,49.20
2018-06-21T23:00:22.920Z,49.70
2018-06-21T23:03:00.736Z,49.10
2018-06-21T23:05:41.914Z,50.00
2018-06-21T23:13:44.313Z,49.60
2018-06-21T23:16:14.384Z,50.10
2018-06-21T23:19:02.121Z,51.60
2018-06-21T23:21:55.809Z,51.10
2018-06-21T23:24:33.149Z,50.60
2018-06-21T23:27:04.524Z,51.00
2018-06-21T23:29:32.795Z,50.60
2018-06-21T23:32:01.067Z,50.90
2018-06-21T23:34:29.343Z,50.90
2018-06-21T23:36:57.595Z,51.50
2018-06-21T23:39:26.124Z,51.10
2018-06-21T23:41:54.431Z,51.80
2018-06-21T23:44:22.704Z,50.90
2018-06-21T23:46:51.005Z,50.40
2018-06-21T23:49:19.272Z,50.40
2018-06-21T23:51:47.534Z,50.10
2018-06-21T23:54:15.855Z,49.90
2018-06-21T23:56:44.743Z,51.00
2018-06-21T23:59:13.021Z,50.10
